Time;durP1;ratioP1;P1;durP2;ratioP2;P2;SDS_P1;SDS_P2;PMS_P1;PMS_P2;Temp;Humidity;BMP_temperature;BMP_pressure;BME280_temperature;BME280_humidity;BME280_pressure;Samples;Min_cycle;Max_cycle;Signal;HPM_P1;HPM_P2
2022/06/09 00:01:43;;;;;;;5.87;3.47;;;;;;;15.29;100.00;100389.11;1780794;80;20953;-42
2022/06/09 00:04:20;;;;;;;6.17;3.90;;;;;;;15.31;100.00;100396.41;1781018;80;21486;-41
2022/06/09 00:07:00;;;;;;;9.40;4.10;;;;;;;15.29;100.00;100387.80;1780870;80;20917;-41
2022/06/09 00:09:34;;;;;;;7.05;3.30;;;;;;;15.29;100.00;100387.80;1780708;80;20937;-41
2022/06/09 00:12:01;;;;;;;8.97;3.70;;;;;;;15.26;100.00;100390.50;1780980;80;21268;-41
2022/06/09 00:14:30;;;;;;;11.53;4.45;;;;;;;15.22;100.00;100388.02;1780742;80;20936;-41
2022/06/09 00:16:57;;;;;;;7.47;4.00;;;;;;;15.22;100.00;100395.84;1780707;80;21078;-41
2022/06/09 00:19:23;;;;;;;11.88;4.55;;;;;;;15.28;100.00;100388.68;1780644;80;20928;-41
2022/06/09 00:21:51;;;;;;;10.60;4.00;;;;;;;15.33;100.00;100388.07;1780613;80;20987;-41
2022/06/09 00:24:18;;;;;;;4.05;3.65;;;;;;;15.38;100.00;100386.95;1780920;80;21142;-41
2022/06/09 00:26:45;;;;;;;5.92;3.62;;;;;;;15.36;100.00;100384.87;1780843;80;20885;-41
2022/06/09 00:29:12;;;;;;;6.00;3.47;;;;;;;15.30;100.00;100387.73;1780693;80;20893;-41
2022/06/09 00:31:39;;;;;;;5.75;3.83;;;;;;;15.20;100.00;100392.45;1780740;80;20932;-41
2022/06/09 00:34:05;;;;;;;6.62;3.80;;;;;;;15.09;100.00;100386.34;1780843;80;21541;-41
2022/06/09 00:36:33;;;;;;;5.42;4.20;;;;;;;15.00;100.00;100393.66;1780871;80;21199;-41
2022/06/09 00:39:00;;;;;;;8.73;3.50;;;;;;;14.89;100.00;100389.71;1780738;80;20995;-41
2022/06/09 00:41:29;;;;;;;6.20;4.15;;;;;;;14.80;100.00;100380.95;1780647;80;20996;-41
2022/06/09 00:44:21;;;;;;;6.17;3.72;;;;;;;14.72;100.00;100382.97;1780861;80;21506;-41
2022/06/09 00:47:29;;;;;;;8.85;3.95;;;;;;;14.66;100.00;100384.03;1780714;80;20920;-41
2022/06/09 00:50:07;;;;;;;5.65;4.50;;;;;;;14.59;100.00;100380.80;1780766;80;21056;-41
2022/06/09 00:52:39;;;;;;;10.03;4.17;;;;;;;14.57;100.00;100387.81;1780329;80;20873;-41
2022/06/09 00:55:13;;;;;;;11.12;3.95;;;;;;;14.57;100.00;100380.44;1780816;80;20889;-41
2022/06/09 00:57:44;;;;;;;5.87;3.90;;;;;;;14.52;100.00;100383.20;1780663;80;21019;-41
2022/06/09 01:00:15;;;;;;;8.10;4.78;;;;;;;14.48;100.00;100381.62;1777443;80;20877;-41
2022/06/09 01:02:42;;;;;;;15.50;4.70;;;;;;;14.47;100.00;100379.92;1775251;80;21863;-41
2022/06/09 01:05:12;;;;;;;8.95;4.37;;;;;;;14.50;100.00;100378.06;1775156;80;20941;-41
2022/06/09 01:07:46;;;;;;;5.22;3.95;;;;;;;14.57;100.00;100378.70;1774882;80;20916;-41
2022/06/09 01:10:13;;;;;;;6.00;3.90;;;;;;;14.63;100.00;100382.38;1775182;80;20901;-41
2022/06/09 01:12:43;;;;;;;3.55;3.22;;;;;;;14.65;100.00;100387.08;1775263;80;20964;-41
2022/06/09 01:15:19;;;;;;;10.75;3.92;;;;;;;14.66;100.00;100385.34;1775123;80;21294;-41
2022/06/09 01:18:11;;;;;;;7.80;3.72;;;;;;;14.61;100.00;100377.68;1775384;80;20838;-41
2022/06/09 01:21:02;;;;;;;11.00;3.92;;;;;;;14.60;100.00;100377.28;1752384;80;20928;-41
2022/06/09 01:24:00;;;;;;;9.73;3.80;;;;;;;14.58;100.00;100379.53;1775110;80;20988;-41
2022/06/09 01:27:04;;;;;;;7.87;4.10;;;;;;;14.55;100.00;100381.81;1775342;80;20941;-41
2022/06/09 01:30:06;;;;;;;7.00;3.58;;;;;;;14.55;100.00;100379.65;1774935;80;21393;-41
2022/06/09 01:32:43;;;;;;;7.42;4.00;;;;;;;14.56;100.00;100382.22;1753168;80;21486;-41
2022/06/09 01:35:34;;;;;;;8.33;4.03;;;;;;;14.50;100.00;100382.41;1774752;80;21462;-41
2022/06/09 01:38:00;;;;;;;6.03;3.37;;;;;;;14.46;100.00;100382.13;1775137;80;20916;-41
2022/06/09 01:40:28;;;;;;;7.65;3.58;;;;;;;14.39;100.00;100382.79;1775054;80;21401;-41
2022/06/09 01:42:56;;;;;;;5.28;3.30;;;;;;;14.32;100.00;100380.88;1774760;80;21087;-41
2022/06/09 01:45:48;;;;;;;6.60;3.58;;;;;;;14.25;100.00;100382.45;1774854;80;21526;-41
2022/06/09 01:48:17;;;;;;;6.15;3.98;;;;;;;14.18;100.00;100387.88;1775209;80;20853;-41
2022/06/09 01:50:49;;;;;;;7.37;3.92;;;;;;;14.13;100.00;100383.72;1775146;80;20964;-41
2022/06/09 01:53:24;;;;;;;5.55;3.77;;;;;;;14.11;100.00;100384.23;1775164;80;20906;-41
2022/06/09 01:55:54;;;;;;;7.80;3.70;;;;;;;14.06;100.00;100378.73;1775104;80;21447;-41
2022/06/09 01:58:25;;;;;;;3.92;3.52;;;;;;;14.03;100.00;100377.55;1753009;80;20937;-41
2022/06/09 02:00:52;;;;;;;6.10;3.55;;;;;;;14.00;100.00;100377.62;1775006;80;21537;-41
2022/06/09 02:03:23;;;;;;;5.08;3.85;;;;;;;14.01;100.00;100384.98;1753156;80;20877;-41
2022/06/09 02:05:52;;;;;;;8.43;3.83;;;;;;;14.01;100.00;100387.13;1775081;80;20842;-41
2022/06/09 02:08:21;;;;;;;5.53;3.77;;;;;;;14.00;100.00;100389.33;1775024;80;21042;-41
2022/06/09 02:10:56;;;;;;;7.22;4.00;;;;;;;13.96;100.00;100387.73;1753299;80;20933;-41
2022/06/09 02:13:28;;;;;;;5.78;3.80;;;;;;;13.93;100.00;100390.44;1774807;80;20972;-41
2022/06/09 02:15:58;;;;;;;10.08;3.50;;;;;;;13.91;100.00;100393.55;1775048;80;20933;-41
2022/06/09 02:18:28;;;;;;;6.30;4.22;;;;;;;13.91;100.00;100392.25;1775230;80;20932;-41
2022/06/09 02:21:10;;;;;;;5.22;3.70;;;;;;;13.89;100.00;100389.72;1775286;80;21132;-41
2022/06/09 02:23:38;;;;;;;7.58;3.77;;;;;;;13.90;100.00;100395.32;1775007;80;21604;-41
2022/06/09 02:26:05;;;;;;;11.50;4.05;;;;;;;13.91;100.00;100395.72;1775076;80;21094;-41
2022/06/09 02:28:32;;;;;;;9.73;3.75;;;;;;;13.94;100.00;100393.45;1774968;80;20933;-41
2022/06/09 02:30:59;;;;;;;10.60;3.77;;;;;;;13.99;100.00;100392.83;1775211;80;20921;-41
2022/06/09 02:33:27;;;;;;;12.33;4.08;;;;;;;14.06;100.00;100395.65;1775270;80;20964;-41
2022/06/09 02:35:54;;;;;;;4.80;3.45;;;;;;;14.16;100.00;100395.33;1775120;80;20885;-41
2022/06/09 02:38:21;;;;;;;6.83;3.62;;;;;;;14.27;100.00;100395.79;1775060;80;20928;-41
2022/06/09 02:40:49;;;;;;;16.02;4.12;;;;;;;14.35;100.00;100400.73;1774787;80;21115;-42
2022/06/09 02:43:16;;;;;;;8.15;4.62;;;;;;;14.41;100.00;100399.23;1775302;80;20889;-41
2022/06/09 02:45:43;;;;;;;8.25;4.67;;;;;;;14.48;100.00;100400.72;1775369;80;21076;-41
2022/06/09 02:48:12;;;;;;;13.90;5.17;;;;;;;14.48;100.00;100402.45;1774929;80;20968;-41
2022/06/09 02:50:39;;;;;;;6.30;4.47;;;;;;;14.49;100.00;100402.84;1774990;80;20932;-41
2022/06/09 02:53:06;;;;;;;12.00;4.97;;;;;;;14.51;100.00;100401.91;1775199;80;20976;-41
2022/06/09 02:55:33;;;;;;;9.80;5.33;;;;;;;14.55;100.00;100403.95;1775050;80;20983;-42
2022/06/09 02:58:01;;;;;;;11.28;4.80;;;;;;;14.60;100.00;100392.91;1774910;80;21239;-42
2022/06/09 03:00:28;;;;;;;11.08;5.10;;;;;;;14.65;100.00;100390.12;1777564;80;21387;-41
2022/06/09 03:02:59;;;;;;;10.50;5.17;;;;;;;14.70;100.00;100389.52;1780829;80;20920;-41
2022/06/09 03:05:27;;;;;;;7.40;4.65;;;;;;;14.80;100.00;100386.16;1781010;80;20928;-41
2022/06/09 03:07:54;;;;;;;11.15;4.95;;;;;;;14.92;100.00;100393.97;1780819;80;21410;-41
2022/06/09 03:10:22;;;;;;;14.23;5.05;;;;;;;15.04;100.00;100394.80;1780913;80;21215;-42
2022/06/09 03:12:50;;;;;;;14.23;4.92;;;;;;;15.15;100.00;100386.56;1780723;80;20849;-41
2022/06/09 03:15:21;;;;;;;11.30;5.20;;;;;;;15.29;100.00;100392.55;1780952;80;20932;-41
2022/06/09 03:17:50;;;;;;;10.03;4.70;;;;;;;15.46;100.00;100398.39;1780766;80;20979;-42
2022/06/09 03:20:26;;;;;;;14.03;5.65;;;;;;;15.62;100.00;100391.27;1780742;80;21222;-41
2022/06/09 03:22:54;;;;;;;7.55;5.03;;;;;;;15.80;100.00;100384.44;1780763;80;21100;-41
2022/06/09 03:25:21;;;;;;;9.78;5.05;;;;;;;15.99;100.00;100385.84;1780612;80;21481;-41
2022/06/09 03:27:48;;;;;;;10.23;4.90;;;;;;;16.18;100.00;100386.37;1780927;80;20920;-41
2022/06/09 03:30:15;;;;;;;18.27;4.60;;;;;;;16.35;100.00;100389.56;1780977;80;21487;-41
2022/06/09 03:32:42;;;;;;;18.52;5.22;;;;;;;16.52;100.00;100381.84;1781121;80;20905;-42
2022/06/09 03:35:08;;;;;;;10.90;4.70;;;;;;;16.69;100.00;100371.09;1780871;80;21362;-42
2022/06/09 03:37:35;;;;;;;19.87;4.78;;;;;;;16.87;100.00;100369.84;1780774;80;20972;-42
2022/06/09 03:40:04;;;;;;;10.05;4.20;;;;;;;17.08;100.00;100370.66;1780773;80;21742;-42
2022/06/09 03:42:31;;;;;;;10.93;4.10;;;;;;;17.36;100.00;100373.27;1780811;80;21534;-41
2022/06/09 03:44:57;;;;;;;13.72;4.03;;;;;;;17.67;100.00;100376.52;1780930;80;20900;-42
2022/06/09 03:47:25;;;;;;;8.13;4.17;;;;;;;18.04;100.00;100373.02;1780698;80;21971;-42
2022/06/09 03:49:51;;;;;;;7.12;3.77;;;;;;;18.42;100.00;100367.55;1780811;80;21027;-42
2022/06/09 03:52:18;;;;;;;8.78;3.55;;;;;;;18.84;100.00;100372.36;1780874;80;21026;-42
2022/06/09 03:54:45;;;;;;;8.88;3.10;;;;;;;19.22;100.00;100375.52;1780703;80;20908;-41
2022/06/09 03:57:12;;;;;;;5.33;3.20;;;;;;;19.60;100.00;100374.27;1780801;80;20937;-42
2022/06/09 03:59:39;;;;;;;5.67;3.30;;;;;;;19.97;100.00;100379.66;1780860;80;21220;-42
2022/06/09 04:02:06;;;;;;;9.73;3.50;;;;;;;20.26;100.00;100375.27;1774949;80;20968;-42
2022/06/09 04:04:32;;;;;;;10.45;3.37;;;;;;;20.59;100.00;100383.82;1775059;80;21030;-42
2022/06/09 04:06:59;;;;;;;6.00;3.37;;;;;;;20.89;100.00;100385.05;1774895;80;21099;-42
2022/06/09 04:09:27;;;;;;;8.48;4.03;;;;;;;21.19;98.76;100385.34;1775134;80;20881;-41
2022/06/09 04:11:54;;;;;;;9.70;3.05;;;;;;;21.41;94.40;100385.73;1775339;80;22061;-41
2022/06/09 04:14:21;;;;;;;5.00;3.25;;;;;;;21.62;91.24;100382.17;1775056;80;20976;-41
2022/06/09 04:16:47;;;;;;;5.33;2.80;;;;;;;21.81;87.77;100385.28;1774738;80;21363;-41
2022/06/09 04:19:17;;;;;;;7.67;3.42;;;;;;;21.96;84.33;100379.45;1775015;80;20956;-42
2022/06/09 04:21:44;;;;;;;3.67;3.27;;;;;;;22.14;80.54;100373.05;1775058;80;20979;-42
2022/06/09 04:24:11;;;;;;;3.75;3.30;;;;;;;22.32;78.70;100371.76;1775162;80;21148;-42
2022/06/09 04:26:39;;;;;;;8.58;3.45;;;;;;;22.49;77.83;100371.95;1774841;80;20995;-41
2022/06/09 04:29:07;;;;;;;7.45;3.42;;;;;;;22.66;75.92;100372.08;1775144;80;22543;-43
2022/06/09 04:31:36;;;;;;;9.25;4.10;;;;;;;22.81;75.20;100373.23;1775198;80;21474;-43
2022/06/09 04:34:03;;;;;;;10.23;4.15;;;;;;;23.00;74.83;100375.88;1775275;80;20913;-42
2022/06/09 04:36:30;;;;;;;15.65;5.25;;;;;;;23.18;74.14;100373.23;1775176;80;21142;-41
2022/06/09 04:38:58;;;;;;;20.17;5.08;;;;;;;23.32;72.64;100375.35;1774782;80;21501;-42
2022/06/09 04:41:25;;;;;;;9.48;4.97;;;;;;;23.39;69.25;100375.29;1775003;80;20971;-41
2022/06/09 04:43:51;;;;;;;16.65;5.12;;;;;;;23.35;66.85;100383.05;1775034;80;21502;-42
2022/06/09 04:46:21;;;;;;;22.70;6.72;;;;;;;23.31;67.00;100380.27;1775268;80;20907;-42
2022/06/09 04:48:48;;;;;;;31.35;6.70;;;;;;;23.36;67.72;100380.30;1775087;80;21078;-42
2022/06/09 04:51:18;;;;;;;23.42;6.33;;;;;;;23.51;67.16;100384.92;1775181;80;20948;-41
2022/06/09 04:53:47;;;;;;;32.95;7.92;;;;;;;23.67;66.21;100389.08;1775114;80;20885;-43
2022/06/09 04:56:15;;;;;;;28.67;7.00;;;;;;;23.85;66.70;100388.16;1775076;80;20929;-42
2022/06/09 04:58:41;;;;;;;27.48;7.25;;;;;;;24.00;65.54;100387.47;1775124;80;20928;-41
2022/06/09 05:01:19;;;;;;;23.90;7.45;;;;;;;24.23;64.94;100391.50;1777567;80;21237;-41
2022/06/09 05:03:47;;;;;;;26.45;7.53;;;;;;;24.43;65.16;100385.97;1780389;80;21672;-42
2022/06/09 05:06:19;;;;;;;26.37;8.00;;;;;;;24.66;63.59;100390.80;1780685;80;20905;-42
2022/06/09 05:08:47;;;;;;;24.00;7.33;;;;;;;24.87;62.86;100394.02;1780524;80;20885;-41
2022/06/09 05:11:15;;;;;;;29.07;7.10;;;;;;;25.03;62.68;100393.66;1780942;80;21458;-42
2022/06/09 05:13:42;;;;;;;20.88;6.03;;;;;;;25.18;58.61;100400.84;1780976;80;21134;-41
2022/06/09 05:16:09;;;;;;;20.60;5.90;;;;;;;25.13;59.35;100404.31;1752455;80;21538;-44
2022/06/09 05:18:37;;;;;;;17.92;5.08;;;;;;;25.43;60.94;100406.77;1780945;80;20976;-42
2022/06/09 05:21:05;;;;;;;17.42;4.92;;;;;;;25.80;59.73;100405.05;1780896;80;20984;-41
2022/06/09 05:23:32;;;;;;;13.65;4.85;;;;;;;26.17;59.32;100406.42;1780932;80;20857;-42
2022/06/09 05:26:00;;;;;;;15.63;4.70;;;;;;;26.60;59.53;100405.84;1780806;80;21526;-41
2022/06/09 05:28:28;;;;;;;15.28;4.67;;;;;;;26.95;58.25;100409.05;1780742;80;20885;-42
2022/06/09 05:30:55;;;;;;;16.45;4.60;;;;;;;27.27;57.71;100407.15;1780886;80;20925;-42
2022/06/09 05:33:22;;;;;;;18.60;5.35;;;;;;;27.49;58.00;100406.88;1780921;80;20975;-41
2022/06/09 05:35:48;;;;;;;19.17;4.60;;;;;;;27.71;55.96;100406.75;1780727;80;20924;-43
2022/06/09 05:46:33;;;;;;;12.03;6.70;;;;;;;28.69;50.55;100397.16;1781258;80;21494;-42
2022/06/09 05:49:00;;;;;;;14.07;7.20;;;;;;;29.01;47.73;100409.19;1780984;80;21023;-42
2022/06/09 05:51:27;;;;;;;20.12;8.23;;;;;;;29.03;47.58;100410.39;1780945;80;21164;-42
2022/06/09 05:53:54;;;;;;;15.63;8.63;;;;;;;28.99;46.34;100406.35;1780744;80;20972;-42
2022/06/09 05:56:20;;;;;;;24.72;9.68;;;;;;;29.15;46.56;100409.67;1780859;80;20968;-42
2022/06/09 05:58:47;;;;;;;18.62;10.23;;;;;;;29.19;43.40;100405.72;1780832;80;20932;-42
2022/06/09 06:01:14;;;;;;;26.48;10.10;;;;;;;29.21;40.76;100406.40;1778888;80;20920;-42
2022/06/09 06:03:43;;;;;;;25.50;10.70;;;;;;;29.03;42.06;100403.22;1775263;80;21791;-42
2022/06/09 06:08:55;;;;;;;26.87;11.75;;;;;;;28.74;41.28;100406.87;1775244;80;21458;-42
2022/06/09 06:11:23;;;;;;;21.33;11.75;;;;;;;28.48;42.45;100410.73;1775132;80;21006;-42
2022/06/09 06:13:50;;;;;;;23.20;12.30;;;;;;;28.49;42.02;100409.73;1774829;80;20885;-42
2022/06/09 06:16:16;;;;;;;24.98;12.20;;;;;;;28.48;42.62;100408.88;1775105;80;21059;-42
2022/06/09 06:18:45;;;;;;;20.10;11.05;;;;;;;28.33;40.75;100412.52;1775085;80;21414;-43
2022/06/09 06:21:11;;;;;;;23.20;12.45;;;;;;;28.19;40.50;100416.99;1775044;80;21479;-41
2022/06/09 06:23:40;;;;;;;23.32;11.95;;;;;;;27.81;41.33;100417.72;1775376;80;21467;-40
2022/06/09 06:26:07;;;;;;;22.52;11.03;;;;;;;27.53;42.09;100412.77;1775180;80;21035;-40
2022/06/09 06:28:34;;;;;;;22.00;11.97;;;;;;;27.19;43.30;100417.98;1775100;80;21161;-41
2022/06/09 06:31:01;;;;;;;23.42;11.20;;;;;;;26.94;43.92;100412.69;1774697;80;21070;-42
2022/06/09 06:33:29;;;;;;;33.83;11.40;;;;;;;26.87;44.74;100416.36;1779006;80;20916;-42
2022/06/09 06:35:56;;;;;;;28.07;10.93;;;;;;;26.83;45.18;100412.27;1774812;80;20933;-42
2022/06/09 06:38:22;;;;;;;27.10;11.12;;;;;;;26.74;46.14;100413.92;1775082;80;20987;-42
2022/06/09 06:40:50;;;;;;;23.25;10.82;;;;;;;26.64;46.07;100419.19;1774736;80;21099;-40
2022/06/09 06:43:16;;;;;;;30.80;10.70;;;;;;;26.49;47.31;100419.22;1775050;80;21011;-41
2022/06/09 06:45:44;;;;;;;22.20;10.00;;;;;;;26.30;47.97;100424.78;1775147;80;21003;-42
2022/06/09 06:48:10;;;;;;;26.40;10.82;;;;;;;26.19;49.48;100426.20;1774816;80;20890;-42
2022/06/09 06:50:38;;;;;;;23.95;10.25;;;;;;;26.03;50.11;100423.48;1775132;80;20995;-42
2022/06/09 06:53:05;;;;;;;30.35;10.53;;;;;;;25.96;51.64;100424.48;1774830;80;21882;-42
2022/06/09 06:55:33;;;;;;;26.68;10.88;;;;;;;25.87;51.92;100427.91;1774936;80;20940;-42
2022/06/09 06:58:00;;;;;;;24.15;10.20;;;;;;;25.82;52.70;100424.31;1775062;80;20929;-42
2022/06/09 07:00:27;;;;;;;45.52;10.88;;;;;;;25.82;53.24;100426.97;1775026;80;21453;-42
2022/06/09 07:02:53;;;;;;;35.13;11.70;;;;;;;25.83;53.91;100429.97;1782298;80;21011;-43
2022/06/09 07:05:21;;;;;;;27.25;10.30;;;;;;;25.91;53.67;100430.66;1783543;80;21103;-42
2022/06/09 07:07:49;;;;;;;34.08;10.43;;;;;;;25.99;53.05;100423.86;1783548;80;20905;-41
2022/06/09 07:10:16;;;;;;;24.27;9.90;;;;;;;26.04;53.75;100425.16;1783615;80;21576;-41
2022/06/09 07:12:42;;;;;;;24.70;11.03;;;;;;;26.10;53.60;100415.85;1783868;80;20892;-41
2022/06/09 07:15:11;;;;;;;28.25;10.90;;;;;;;26.23;51.77;100424.45;1783522;79;21549;-41
2022/06/09 07:17:38;;;;;;;30.43;10.53;;;;;;;26.37;52.22;100416.64;1783609;80;21237;-42
2022/06/09 07:20:06;;;;;;;29.35;10.63;;;;;;;26.55;52.03;100421.33;1783384;80;21014;-42
2022/06/09 07:22:34;;;;;;;52.10;11.38;;;;;;;26.70;51.52;100427.11;1754590;80;21426;-42
2022/06/09 07:25:01;;;;;;;27.98;10.60;;;;;;;26.90;51.96;100424.05;1783221;80;20944;-41
2022/06/09 07:27:29;;;;;;;20.35;9.63;;;;;;;27.09;51.40;100422.42;1783602;80;21379;-42
2022/06/09 07:29:56;;;;;;;29.18;9.65;;;;;;;27.34;50.88;100421.55;1783501;79;21196;-42
2022/06/09 07:32:23;;;;;;;22.42;8.85;;;;;;;27.54;49.48;100430.42;1783466;80;21482;-42
2022/06/09 07:34:49;;;;;;;25.15;8.78;;;;;;;27.97;48.18;100423.78;1783142;80;20880;-42
2022/06/09 07:37:16;;;;;;;25.68;9.35;;;;;;;28.38;44.50;100426.73;1783269;80;20948;-42
2022/06/09 07:39:43;;;;;;;23.70;9.00;;;;;;;28.51;44.56;100421.08;1783399;80;21077;-42
2022/06/09 07:42:10;;;;;;;25.37;8.43;;;;;;;28.59;44.25;100423.01;1783597;80;21146;-42
2022/06/09 07:44:36;;;;;;;18.92;8.28;;;;;;;28.73;42.00;100421.68;1783349;80;20892;-43
2022/06/09 07:47:05;;;;;;;27.85;7.58;;;;;;;29.04;43.34;100417.39;1783495;80;20940;-43
2022/06/09 07:49:33;;;;;;;24.27;8.23;;;;;;;29.27;42.70;100431.09;1714627;80;20924;-43
2022/06/09 07:52:00;;;;;;;21.82;7.37;;;;;;;29.66;40.60;100426.83;1783661;80;20869;-43
2022/06/09 07:54:26;;;;;;;17.67;7.87;;;;;;;30.13;39.15;100425.34;1783555;80;21112;-43
2022/06/09 07:56:53;;;;;;;17.45;7.17;;;;;;;30.47;38.26;100416.02;1783527;80;20992;-43
2022/06/09 07:59:21;;;;;;;17.60;6.72;;;;;;;30.81;36.65;100419.69;1783485;80;21007;-43
2022/06/09 08:01:47;;;;;;;17.92;7.12;;;;;;;31.01;36.40;100415.41;1783508;80;21394;-43
2022/06/09 08:04:15;;;;;;;16.85;5.87;;;;;;;31.13;34.97;100415.92;1783665;80;21052;-43
2022/06/09 08:06:42;;;;;;;22.50;5.55;;;;;;;31.14;35.82;100417.08;1783388;80;21115;-43
2022/06/09 08:09:10;;;;;;;16.25;4.55;;;;;;;31.23;35.12;100415.30;1783471;80;20999;-42
2022/06/09 08:11:38;;;;;;;9.40;4.70;;;;;;;31.29;32.28;100414.62;1783524;80;20944;-43
2022/06/09 08:14:06;;;;;;;10.72;4.60;;;;;;;31.28;35.09;100417.48;1783482;80;20929;-43
2022/06/09 08:17:31;;;;;;;14.83;4.83;;;;;;;31.24;34.04;100410.28;1816348;79;23312;-42
2022/06/09 08:19:59;;;;;;;12.53;4.67;;;;;;;31.39;34.61;100405.97;1789470;80;20919;-43
2022/06/09 08:22:27;;;;;;;24.47;5.12;;;;;;;31.57;32.85;100408.95;1789389;80;21861;-43
2022/06/09 08:24:55;;;;;;;26.33;5.28;;;;;;;31.56;31.26;100407.80;1789152;80;20912;-43
2022/06/09 08:27:22;;;;;;;20.25;4.35;;;;;;;31.47;30.08;100402.46;1789363;80;20983;-42
2022/06/09 08:29:51;;;;;;;7.12;3.22;;;;;;;31.27;32.12;100403.27;1789296;80;20928;-43
2022/06/09 08:32:18;;;;;;;14.40;4.28;;;;;;;31.23;31.34;100401.45;1789391;80;21326;-44
2022/06/09 08:34:44;;;;;;;43.98;7.05;;;;;;;31.35;31.40;100401.11;1789180;80;21365;-43
2022/06/09 08:37:11;;;;;;;58.45;7.92;;;;;;;31.57;31.84;100396.92;1789493;80;21426;-43
2022/06/09 08:39:38;;;;;;;14.45;4.80;;;;;;;31.88;31.83;100395.42;1788040;80;20923;-44
2022/06/09 08:42:35;;;;;;;10.35;4.25;;;;;;;32.03;31.89;100400.42;1760538;81;20896;-43
2022/06/09 08:45:07;;;;;;;50.63;6.33;;;;;;;32.24;30.83;100405.20;1760751;81;20941;-42
2022/06/09 08:47:49;;;;;;;14.73;3.95;;;;;;;32.41;31.83;100396.30;1760298;81;21110;-42
2022/06/09 08:50:26;;;;;;;10.35;2.75;;;;;;;32.59;29.81;100397.38;1760391;81;20932;-43
2022/06/09 08:53:05;;;;;;;6.08;2.67;;;;;;;32.71;28.66;100393.81;1760462;81;20964;-43
2022/06/09 08:55:45;;;;;;;16.07;3.55;;;;;;;32.80;28.75;100398.95;1759944;81;20956;-42
2022/06/09 08:58:26;;;;;;;10.10;3.52;;;;;;;32.88;28.22;100391.93;1760562;81;20904;-43
2022/06/09 09:01:17;;;;;;;28.30;5.22;;;;;;;32.88;27.91;100398.11;1760498;81;21050;-41
2022/06/09 09:03:50;;;;;;;46.35;4.78;;;;;;;32.89;26.46;100391.73;1759956;81;20900;-43
2022/06/09 09:06:39;;;;;;;7.83;3.98;;;;;;;32.57;28.39;100389.55;1760423;81;20869;-43
2022/06/09 09:09:17;;;;;;;24.23;5.17;;;;;;;32.62;28.70;100390.37;1760417;81;21082;-42
2022/06/09 09:12:45;;;;;;;27.20;6.20;;;;;;;32.81;28.43;100395.78;1757131;81;20908;-42
2022/06/09 09:15:42;;;;;;;34.10;6.03;;;;;;;32.73;28.33;100395.31;1760465;81;21163;-44
2022/06/09 09:18:24;;;;;;;19.02;4.55;;;;;;;32.66;29.62;100397.85;1759390;81;20940;-43
2022/06/09 09:21:16;;;;;;;26.80;5.75;;;;;;;32.86;29.11;100389.91;1760774;81;21423;-43
2022/06/09 09:24:09;;;;;;;41.92;4.92;;;;;;;33.08;27.96;100397.66;1760565;80;20975;-43
2022/06/09 09:26:51;;;;;;;48.25;5.65;;;;;;;33.30;30.17;100394.62;1760661;81;20892;-43
2022/06/09 09:30:10;;;;;;;25.45;4.65;;;;;;;33.26;26.57;100397.34;1759878;81;21257;-44
2022/06/09 09:32:48;;;;;;;23.98;4.42;;;;;;;33.04;28.66;100390.98;1760019;81;21389;-42
2022/06/09 09:35:24;;;;;;;17.32;3.98;;;;;;;33.22;28.36;100384.83;1759846;80;21010;-44
2022/06/09 09:37:54;;;;;;;10.35;3.35;;;;;;;33.61;29.09;100384.36;1759928;79;21382;-43
2022/06/09 09:40:39;;;;;;;9.30;3.12;;;;;;;33.77;27.06;100382.52;1759788;81;21170;-44
2022/06/09 09:43:10;;;;;;;4.10;3.30;;;;;;;33.67;27.61;100385.46;1760140;81;26556;-42
2022/06/09 09:45:42;;;;;;;7.22;2.87;;;;;;;33.33;29.22;100386.75;1759958;81;20935;-42
2022/06/09 09:48:22;;;;;;;13.90;3.30;;;;;;;33.10;28.66;100388.43;1759948;81;20881;-43
2022/06/09 09:51:05;;;;;;;12.70;3.47;;;;;;;32.74;30.12;100384.11;1760292;80;20912;-43
2022/06/09 09:53:38;;;;;;;16.35;3.67;;;;;;;32.53;30.74;100385.03;1759899;81;21552;-42
2022/06/09 09:56:19;;;;;;;11.03;3.70;;;;;;;32.27;30.60;100390.64;1759933;81;21786;-42
2022/06/09 09:58:55;;;;;;;7.47;3.98;;;;;;;32.05;31.70;100389.03;1759983;81;20920;-43
2022/06/09 10:01:27;;;;;;;4.58;3.60;;;;;;;31.90;31.12;100380.88;1759962;81;20990;-43
2022/06/09 10:09:55;;;;;;;13.58;3.12;;;;;;;32.27;31.42;100365.22;1759986;80;22297;-41
2022/06/09 10:12:30;;;;;;;22.58;3.45;;;;;;;32.52;29.81;100364.62;1759983;81;20981;-41
2022/06/09 10:15:14;;;;;;;11.22;3.35;;;;;;;32.43;28.69;100364.83;1759903;81;20984;-43
2022/06/09 10:17:58;;;;;;;26.90;4.28;;;;;;;32.38;30.09;100358.16;1749180;80;20901;-42
2022/06/09 10:20:49;;;;;;;8.83;3.08;;;;;;;32.37;29.47;100355.15;1746957;80;20984;-43
2022/06/09 10:23:47;;;;;;;11.68;2.83;;;;;;;32.60;28.92;100353.03;1732907;82;21265;-43
2022/06/09 10:26:19;;;;;;;6.80;2.40;;;;;;;32.84;27.53;100351.22;1746870;82;20897;-43
2022/06/09 10:29:08;;;;;;;4.87;2.67;;;;;;;32.89;28.15;100356.90;1746822;82;21366;-43
2022/06/09 10:31:58;;;;;;;9.53;2.60;;;;;;;33.01;27.80;100359.19;1745971;82;21369;-43
2022/06/09 10:34:43;;;;;;;14.95;2.55;;;;;;;32.87;28.48;100364.25;1746730;82;20920;-43
2022/06/09 10:37:45;;;;;;;10.23;2.62;;;;;;;32.51;29.33;100364.28;1746824;82;21424;-43
2022/06/09 10:40:27;;;;;;;4.95;2.17;;;;;;;31.92;30.06;100363.30;1746564;81;20924;-43
2022/06/09 10:43:26;;;;;;;6.12;1.90;;;;;;;31.47;31.18;100364.17;1746949;81;21018;-43
2022/06/09 10:46:34;;;;;;;2.40;1.80;;;;;;;31.19;31.78;100360.47;1736779;82;21019;-42
2022/06/09 10:55:16;;;;;;;4.45;2.33;;;;;;;32.15;28.99;100350.52;1746787;82;20892;-43
2022/06/09 10:58:00;;;;;;;24.37;3.08;;;;;;;32.62;28.55;100352.87;1747457;81;20846;-44
2022/06/09 11:00:32;;;;;;;19.37;3.07;;;;;;;33.06;29.66;100346.89;1747062;82;20861;-44
2022/06/09 11:03:02;;;;;;;6.50;2.20;;;;;;;33.30;28.50;100349.05;1746713;82;20881;-44
2022/06/09 11:06:11;;;;;;;5.35;2.75;;;;;;;33.47;28.27;100347.60;1746826;82;21237;-44
2022/06/09 11:09:14;;;;;;;3.35;2.72;;;;;;;33.43;28.37;100347.12;1746809;82;20892;-43
2022/06/09 11:12:04;;;;;;;14.25;3.10;;;;;;;32.94;29.93;100350.49;1747011;82;21525;-44
2022/06/09 11:14:56;;;;;;;30.72;5.03;;;;;;;32.48;30.50;100345.08;1746638;82;21588;-44
2022/06/09 11:18:11;;;;;;;22.98;3.60;;;;;;;32.33;30.98;100339.59;1748105;80;21479;-44
2022/06/09 11:20:53;;;;;;;27.17;5.35;;;;;;;32.52;32.17;100339.69;1749380;81;21257;-43
2022/06/09 11:23:37;;;;;;;25.43;3.95;;;;;;;32.76;29.91;100333.86;1749292;82;21018;-44
2022/06/09 11:26:28;;;;;;;12.60;3.77;;;;;;;32.96;30.74;100334.25;1749389;82;20932;-43
2022/06/09 11:29:06;;;;;;;21.93;3.47;;;;;;;33.20;28.39;100322.48;1749405;81;20992;-44
2022/06/09 11:32:03;;;;;;;19.17;3.47;;;;;;;33.39;27.10;100320.31;1749354;82;21469;-43
2022/06/09 11:34:45;;;;;;;15.48;3.45;;;;;;;32.94;29.22;100322.88;1749193;82;21459;-43
2022/06/09 11:37:46;;;;;;;19.32;3.27;;;;;;;32.92;30.55;100315.00;1748754;82;20912;-43
2022/06/09 11:40:33;;;;;;;10.63;2.83;;;;;;;32.98;27.49;100318.01;1749548;80;21399;-44
2022/06/09 11:43:26;;;;;;;5.70;3.10;;;;;;;33.22;27.18;100322.31;1749357;82;20976;-43
2022/06/09 11:45:57;;;;;;;8.48;2.92;;;;;;;33.35;25.92;100324.38;1749491;82;20948;-44
2022/06/09 11:48:29;;;;;;;7.03;2.80;;;;;;;33.20;26.28;100327.84;1721842;82;21175;-42
2022/06/09 11:50:56;;;;;;;10.90;2.87;;;;;;;33.12;27.09;100328.45;1749456;82;20892;-43
2022/06/09 11:53:28;;;;;;;5.33;2.27;;;;;;;33.08;27.15;100321.27;1749159;82;21460;-45
2022/06/09 11:56:46;;;;;;;9.10;2.40;;;;;;;33.01;27.25;100317.12;1749338;82;21482;-42
2022/06/09 11:59:17;;;;;;;4.53;2.40;;;;;;;32.90;27.93;100321.05;1749163;81;20884;-43
2022/06/09 12:02:08;;;;;;;6.03;3.00;;;;;;;32.86;30.08;100321.58;1749383;82;21135;-43
2022/06/09 12:05:17;;;;;;;4.90;2.58;;;;;;;33.10;29.82;100317.41;1749518;82;20932;-44
2022/06/09 12:08:28;;;;;;;6.85;2.77;;;;;;;33.52;30.47;100317.89;1748995;81;21033;-43
2022/06/09 12:11:03;;;;;;;5.33;2.58;;;;;;;34.02;28.07;100316.53;1749476;82;20904;-43